Time;durP1;ratioP1;P1;durP2;ratioP2;P2;SDS_P1;SDS_P2;PMS_P1;PMS_P2;Temp;Humidity;BMP_temperature;BMP_pressure;BME280_temperature;BME280_humidity;BME280_pressure;Samples;Min_cycle;Max_cycle;Signal;HPM_P1;HPM_P2
2023/05/29 00:01:50;;;;;;;3.13;2.92;;;;;;;;;;5140156;27;20268;-62
2023/05/29 00:04:18;;;;;;;3.33;3.03;;;;;;;;;;5139801;27;20224;-62
2023/05/29 00:06:45;;;;;;;4.15;3.15;;;;;;;;;;5140226;27;20202;-62
2023/05/29 00:09:13;;;;;;;4.28;2.80;;;;;;;;;;5139656;27;20643;-62
2023/05/29 00:11:40;;;;;;;2.75;2.55;;;;;;;;;;5139672;27;20210;-62
2023/05/29 00:14:13;;;;;;;3.15;2.85;;;;;;;;;;5139968;27;20221;-63
2023/05/29 00:16:43;;;;;;;3.13;2.83;;;;;;;;;;5139653;27;20492;-63
2023/05/29 00:19:11;;;;;;;3.17;2.88;;;;;;;;;;5139254;27;20256;-62
2023/05/29 00:21:38;;;;;;;2.95;2.70;;;;;;;;;;5138960;27;20480;-62
2023/05/29 00:24:06;;;;;;;2.90;2.70;;;;;;;;;;5138628;27;20205;-63
2023/05/29 00:26:33;;;;;;;2.78;2.58;;;;;;;;;;5139346;27;20206;-63
2023/05/29 00:29:01;;;;;;;2.78;2.58;;;;;;;;;;5139460;27;20274;-61
2023/05/29 00:31:30;;;;;;;3.20;2.90;;;;;;;;;;5139367;27;20227;-63
2023/05/29 00:33:58;;;;;;;3.03;2.72;;;;;;;;;;5138301;27;20225;-63
2023/05/29 00:36:25;;;;;;;3.30;3.00;;;;;;;;;;5139052;27;20230;-63
2023/05/29 00:38:53;;;;;;;2.80;2.60;;;;;;;;;;5138943;27;20203;-63
2023/05/29 00:41:21;;;;;;;3.10;2.80;;;;;;;;;;5138541;27;20590;-64
2023/05/29 00:43:48;;;;;;;3.45;3.10;;;;;;;;;;5139037;27;20210;-63
2023/05/29 00:46:19;;;;;;;3.17;2.92;;;;;;;;;;5138345;27;20330;-63
2023/05/29 00:48:49;;;;;;;3.22;2.92;;;;;;;;;;5138232;27;20213;-63
2023/05/29 00:51:16;;;;;;;3.30;3.00;;;;;;;;;;5138846;27;20282;-63
2023/05/29 00:53:45;;;;;;;3.22;2.90;;;;;;;;;;5138456;27;20202;-63
2023/05/29 00:56:14;;;;;;;3.45;2.88;;;;;;;;;;5138743;27;20627;-63
2023/05/29 00:58:42;;;;;;;2.83;2.53;;;;;;;;;;5138209;27;20221;-62
2023/05/29 01:01:10;;;;;;;3.28;2.97;;;;;;;;;;5138559;27;20271;-63
2023/05/29 01:03:38;;;;;;;3.38;2.85;;;;;;;;;;5138347;27;20297;-63
2023/05/29 01:06:07;;;;;;;4.40;2.60;;;;;;;;;;5138344;27;20198;-63
2023/05/29 01:08:35;;;;;;;3.03;2.83;;;;;;;;;;5138181;27;20202;-62
2023/05/29 01:11:10;;;;;;;3.20;2.88;;;;;;;;;;5138211;27;20574;-63
2023/05/29 01:13:38;;;;;;;2.85;2.65;;;;;;;;;;5138214;27;20202;-64
2023/05/29 01:16:10;;;;;;;3.17;2.60;;;;;;;;;;5138218;27;20226;-63
2023/05/29 01:18:41;;;;;;;2.90;2.65;;;;;;;;;;5138425;27;20249;-62
2023/05/29 01:21:13;;;;;;;3.10;2.80;;;;;;;;;;5138178;27;20301;-63
2023/05/29 01:24:01;;;;;;;2.80;2.60;;;;;;;;;;5138394;27;20214;-64
2023/05/29 01:26:49;;;;;;;2.92;2.70;;;;;;;;;;5138163;27;20269;-63
2023/05/29 01:29:20;;;;;;;3.13;2.83;;;;;;;;;;5130135;28;20345;-63
2023/05/29 01:31:49;;;;;;;3.15;2.95;;;;;;;;;;5140165;27;20251;-63
2023/05/29 01:34:16;;;;;;;3.08;2.78;;;;;;;;;;5142165;27;20556;-63
2023/05/29 01:36:46;;;;;;;2.88;2.67;;;;;;;;;;5142210;27;20593;-63
2023/05/29 01:39:14;;;;;;;3.00;2.80;;;;;;;;;;5142629;27;20422;-63
2023/05/29 01:41:41;;;;;;;3.15;2.85;;;;;;;;;;5142208;27;20229;-63
2023/05/29 01:44:10;;;;;;;3.05;2.85;;;;;;;;;;5142671;27;20550;-63
2023/05/29 01:46:39;;;;;;;3.08;2.80;;;;;;;;;;5142258;27;20202;-63
2023/05/29 01:49:07;;;;;;;3.15;2.85;;;;;;;;;;5142283;27;20213;-64
2023/05/29 01:51:35;;;;;;;3.55;3.25;;;;;;;;;;5142314;27;20245;-63
2023/05/29 01:54:03;;;;;;;3.30;3.00;;;;;;;;;;5142403;27;20210;-63
2023/05/29 01:56:31;;;;;;;3.03;2.72;;;;;;;;;;5142659;27;20202;-63
2023/05/29 01:58:59;;;;;;;2.72;2.53;;;;;;;;;;5141956;27;20203;-63
2023/05/29 02:01:27;;;;;;;3.05;2.75;;;;;;;;;;5142346;27;20202;-63
2023/05/29 02:03:57;;;;;;;3.75;2.85;;;;;;;;;;5142238;27;20202;-63
2023/05/29 02:06:24;;;;;;;3.00;2.78;;;;;;;;;;5142166;27;20205;-63
2023/05/29 02:08:52;;;;;;;3.40;3.10;;;;;;;;;;5141962;27;20210;-61
2023/05/29 02:11:20;;;;;;;2.80;2.60;;;;;;;;;;5141583;27;20255;-63
2023/05/29 02:13:47;;;;;;;3.40;3.10;;;;;;;;;;5141690;27;20238;-63
2023/05/29 02:16:16;;;;;;;3.10;2.88;;;;;;;;;;5141130;27;20313;-63
2023/05/29 02:18:44;;;;;;;2.67;2.47;;;;;;;;;;5141832;27;20302;-63
2023/05/29 02:21:13;;;;;;;3.83;2.70;;;;;;;;;;5141617;27;20229;-63
2023/05/29 02:23:41;;;;;;;3.00;2.80;;;;;;;;;;5141622;27;20202;-63
2023/05/29 02:26:08;;;;;;;2.95;2.75;;;;;;;;;;5141682;27;20217;-62
2023/05/29 02:28:36;;;;;;;3.20;2.90;;;;;;;;;;5140995;27;20213;-63
2023/05/29 02:31:04;;;;;;;3.17;2.85;;;;;;;;;;5141732;27;20227;-63
2023/05/29 02:33:31;;;;;;;3.08;2.78;;;;;;;;;;5141586;27;20642;-63
2023/05/29 02:36:01;;;;;;;2.70;2.50;;;;;;;;;;5140592;27;20638;-63
2023/05/29 02:38:30;;;;;;;3.30;2.80;;;;;;;;;;5140956;27;20298;-63
2023/05/29 02:40:57;;;;;;;3.20;2.90;;;;;;;;;;5141282;27;20645;-63
2023/05/29 02:43:25;;;;;;;2.92;2.72;;;;;;;;;;5140144;27;20202;-63
2023/05/29 02:45:53;;;;;;;3.00;2.80;;;;;;;;;;5141342;27;20389;-63
2023/05/29 02:48:20;;;;;;;4.03;2.80;;;;;;;;;;5140610;27;20289;-63
2023/05/29 02:50:48;;;;;;;2.95;2.65;;;;;;;;;;5140541;27;20208;-63
2023/05/29 02:53:15;;;;;;;3.33;3.08;;;;;;;;;;5140774;27;20209;-63
2023/05/29 02:55:44;;;;;;;3.38;3.08;;;;;;;;;;5140869;27;20290;-63
2023/05/29 02:58:12;;;;;;;3.33;3.03;;;;;;;;;;5140816;27;20409;-63
2023/05/29 03:00:39;;;;;;;3.05;2.65;;;;;;;;;;5141110;27;20202;-64
2023/05/29 03:03:07;;;;;;;2.95;2.75;;;;;;;;;;5140924;27;20562;-63
2023/05/29 03:05:34;;;;;;;2.85;2.65;;;;;;;;;;5141229;27;20225;-63
2023/05/29 03:08:02;;;;;;;3.28;2.97;;;;;;;;;;5140547;27;20221;-63
2023/05/29 03:10:29;;;;;;;3.10;2.80;;;;;;;;;;5140116;27;20230;-63
2023/05/29 03:12:59;;;;;;;2.80;2.60;;;;;;;;;;5140373;27;20202;-63
2023/05/29 03:15:26;;;;;;;2.88;2.67;;;;;;;;;;5140545;27;20230;-62
2023/05/29 03:17:53;;;;;;;3.30;3.00;;;;;;;;;;5140407;27;20259;-64
2023/05/29 03:20:21;;;;;;;2.75;2.55;;;;;;;;;;5140957;27;20485;-63
2023/05/29 03:22:48;;;;;;;3.47;2.67;;;;;;;;;;5140600;27;20202;-63
2023/05/29 03:25:17;;;;;;;2.75;2.55;;;;;;;;;;5140164;27;20280;-64
2023/05/29 03:27:45;;;;;;;3.00;2.80;;;;;;;;;;5140366;27;20635;-62
2023/05/29 03:30:14;;;;;;;3.25;2.95;;;;;;;;;;5140145;27;20613;-62
2023/05/29 03:32:42;;;;;;;3.03;2.80;;;;;;;;;;5140118;27;20249;-63
2023/05/29 03:35:09;;;;;;;3.08;2.88;;;;;;;;;;5140296;27;20615;-62
2023/05/29 03:37:37;;;;;;;2.85;2.65;;;;;;;;;;5140495;27;20202;-62
2023/05/29 03:40:05;;;;;;;3.00;2.80;;;;;;;;;;5140497;27;20535;-63
2023/05/29 03:42:32;;;;;;;3.75;3.08;;;;;;;;;;5140651;27;20540;-63
2023/05/29 03:45:00;;;;;;;3.42;2.70;;;;;;;;;;5140159;27;20263;-63
2023/05/29 03:47:29;;;;;;;3.50;3.10;;;;;;;;;;5140164;27;20316;-63
2023/05/29 03:49:56;;;;;;;2.78;2.58;;;;;;;;;;5140075;27;20202;-63
2023/05/29 03:52:24;;;;;;;3.25;2.95;;;;;;;;;;5139370;27;20267;-63
2023/05/29 03:54:52;;;;;;;3.33;3.03;;;;;;;;;;5137945;27;20194;-62
2023/05/29 03:57:19;;;;;;;3.20;2.88;;;;;;;;;;5139925;27;20219;-63
2023/05/29 03:59:47;;;;;;;2.90;2.70;;;;;;;;;;5139699;27;20209;-63
2023/05/29 04:02:14;;;;;;;3.17;2.88;;;;;;;;;;5139849;27;20273;-62
2023/05/29 04:04:43;;;;;;;3.22;3.03;;;;;;;;;;5139431;27;20491;-63
2023/05/29 04:07:11;;;;;;;3.05;2.72;;;;;;;;;;5139520;27;20270;-63
2023/05/29 04:09:38;;;;;;;3.25;2.95;;;;;;;;;;5138919;27;20624;-63
2023/05/29 04:12:06;;;;;;;3.10;2.80;;;;;;;;;;5139612;27;20210;-63
2023/05/29 04:14:33;;;;;;;3.38;2.80;;;;;;;;;;5139659;27;20559;-62
2023/05/29 04:17:01;;;;;;;3.45;2.90;;;;;;;;;;5138974;27;20226;-62
2023/05/29 04:19:28;;;;;;;3.22;2.92;;;;;;;;;;5139480;27;20202;-62
2023/05/29 04:21:57;;;;;;;3.17;2.88;;;;;;;;;;5139219;27;20292;-62
2023/05/29 04:24:24;;;;;;;3.42;3.08;;;;;;;;;;5139242;27;20356;-63
2023/05/29 04:26:52;;;;;;;3.28;3.00;;;;;;;;;;5139410;27;20226;-62
2023/05/29 04:29:19;;;;;;;2.92;2.72;;;;;;;;;;5138775;27;20242;-63
2023/05/29 04:31:48;;;;;;;2.90;2.70;;;;;;;;;;5139027;27;20570;-62
2023/05/29 04:34:17;;;;;;;3.30;3.00;;;;;;;;;;5138902;27;20202;-63
2023/05/29 04:36:44;;;;;;;3.15;2.95;;;;;;;;;;5138769;27;20356;-62
2023/05/29 04:39:13;;;;;;;3.35;3.05;;;;;;;;;;5139055;27;20206;-63
2023/05/29 04:41:41;;;;;;;3.47;3.17;;;;;;;;;;5138594;27;20222;-63
2023/05/29 04:44:11;;;;;;;3.55;3.22;;;;;;;;;;5138788;27;20583;-63
2023/05/29 04:46:38;;;;;;;3.50;3.20;;;;;;;;;;5138640;27;20207;-63
2023/05/29 04:49:06;;;;;;;3.13;2.85;;;;;;;;;;5138762;27;20614;-63
2023/05/29 04:51:33;;;;;;;3.50;3.20;;;;;;;;;;5138003;27;20464;-63
2023/05/29 04:54:01;;;;;;;4.38;3.40;;;;;;;;;;5138180;27;20263;-63
2023/05/29 04:56:30;;;;;;;3.35;3.05;;;;;;;;;;5138437;27;20226;-63
2023/05/29 04:58:58;;;;;;;3.60;3.30;;;;;;;;;;5138656;27;20201;-63
2023/05/29 05:01:25;;;;;;;3.85;3.45;;;;;;;;;;5137846;27;20576;-63
2023/05/29 05:03:55;;;;;;;3.72;3.33;;;;;;;;;;5138158;27;20245;-63
2023/05/29 05:06:25;;;;;;;3.60;3.30;;;;;;;;;;5138013;27;20202;-63
2023/05/29 05:08:52;;;;;;;3.50;3.20;;;;;;;;;;5138628;27;20583;-63
2023/05/29 05:11:20;;;;;;;3.50;3.20;;;;;;;;;;5138360;27;20212;-64
2023/05/29 05:13:49;;;;;;;4.10;3.65;;;;;;;;;;5138471;27;20209;-63
2023/05/29 05:16:18;;;;;;;4.25;3.60;;;;;;;;;;5138574;27;20480;-64
2023/05/29 05:18:45;;;;;;;3.70;3.40;;;;;;;;;;5138514;27;20206;-64
2023/05/29 05:21:13;;;;;;;3.83;3.35;;;;;;;;;;5138441;27;20381;-63
2023/05/29 05:23:40;;;;;;;4.07;3.78;;;;;;;;;;5138416;27;20298;-63
2023/05/29 05:26:08;;;;;;;3.90;3.60;;;;;;;;;;5138392;27;20198;-64
2023/05/29 05:28:35;;;;;;;3.75;3.45;;;;;;;;;;5138458;28;20486;-64
2023/05/29 05:31:04;;;;;;;4.00;3.60;;;;;;;;;;5138311;27;20210;-64
2023/05/29 05:33:32;;;;;;;3.70;3.40;;;;;;;;;;5138735;27;20213;-63
2023/05/29 05:35:59;;;;;;;4.10;3.72;;;;;;;;;;5138241;28;20233;-64
2023/05/29 05:38:26;;;;;;;4.25;3.85;;;;;;;;;;5138225;28;20203;-64
2023/05/29 05:40:54;;;;;;;4.30;3.90;;;;;;;;;;5137574;27;20213;-64
2023/05/29 05:43:23;;;;;;;4.10;3.78;;;;;;;;;;5137890;27;20276;-64
2023/05/29 05:45:50;;;;;;;4.82;4.05;;;;;;;;;;5137814;27;20857;-63
2023/05/29 05:48:19;;;;;;;4.07;3.53;;;;;;;;;;5137655;27;20202;-64
2023/05/29 05:50:46;;;;;;;4.00;3.70;;;;;;;;;;5138020;28;20206;-64
2023/05/29 05:53:14;;;;;;;4.43;4.03;;;;;;;;;;5137831;28;20472;-64
2023/05/29 05:55:41;;;;;;;4.40;4.00;;;;;;;;;;5138015;27;20234;-64
2023/05/29 05:58:09;;;;;;;4.50;4.10;;;;;;;;;;5137749;28;20202;-64
2023/05/29 06:00:36;;;;;;;4.15;3.75;;;;;;;;;;5137139;28;20229;-64
2023/05/29 06:03:03;;;;;;;4.15;3.85;;;;;;;;;;5137218;28;20202;-64
2023/05/29 06:05:34;;;;;;;4.13;3.83;;;;;;;;;;5138056;27;20212;-64
2023/05/29 06:08:01;;;;;;;5.35;4.30;;;;;;;;;;5137379;28;20209;-63
2023/05/29 06:10:28;;;;;;;4.18;3.85;;;;;;;;;;5137601;27;20233;-64
2023/05/29 06:12:56;;;;;;;4.53;4.13;;;;;;;;;;5136671;27;20203;-63
2023/05/29 06:15:23;;;;;;;4.97;4.13;;;;;;;;;;5137325;27;20202;-64
2023/05/29 06:17:51;;;;;;;4.18;3.78;;;;;;;;;;5138861;27;20229;-64
2023/05/29 06:20:19;;;;;;;5.18;4.45;;;;;;;;;;5141468;27;20309;-64
2023/05/29 06:22:50;;;;;;;4.63;4.22;;;;;;;;;;5141176;27;20589;-63
2023/05/29 06:25:18;;;;;;;4.47;4.07;;;;;;;;;;5141636;27;20201;-64
2023/05/29 06:27:45;;;;;;;4.75;4.15;;;;;;;;;;5141200;27;20617;-64
2023/05/29 06:30:13;;;;;;;4.75;4.25;;;;;;;;;;5141005;27;20237;-63
2023/05/29 06:32:41;;;;;;;5.70;4.65;;;;;;;;;;5141509;27;20209;-63
2023/05/29 06:35:09;;;;;;;4.90;4.40;;;;;;;;;;5140772;27;20314;-64
2023/05/29 06:37:36;;;;;;;5.10;4.20;;;;;;;;;;5140215;27;20520;-64
2023/05/29 06:40:05;;;;;;;4.85;4.35;;;;;;;;;;5140702;27;20202;-64
2023/05/29 06:42:33;;;;;;;4.82;4.43;;;;;;;;;;5141491;27;20213;-64
2023/05/29 06:45:00;;;;;;;5.07;4.63;;;;;;;;;;5140619;27;20209;-63
2023/05/29 06:47:27;;;;;;;5.00;4.50;;;;;;;;;;5139880;27;20216;-64
2023/05/29 06:49:55;;;;;;;5.30;4.80;;;;;;;;;;5141239;27;20202;-64
2023/05/29 06:52:22;;;;;;;5.70;5.20;;;;;;;;;;5141044;27;20487;-63
2023/05/29 06:54:50;;;;;;;6.25;5.65;;;;;;;;;;5141177;27;20213;-64
2023/05/29 06:57:19;;;;;;;6.43;5.10;;;;;;;;;;5140465;27;20226;-63
2023/05/29 06:59:46;;;;;;;4.63;4.22;;;;;;;;;;5140963;27;20206;-63
2023/05/29 07:02:13;;;;;;;5.20;4.70;;;;;;;;;;5140420;27;20598;-64
2023/05/29 07:04:41;;;;;;;5.82;5.32;;;;;;;;;;5140557;27;20202;-64
2023/05/29 07:07:08;;;;;;;5.30;4.80;;;;;;;;;;5140113;27;20291;-63
2023/05/29 07:09:36;;;;;;;5.28;4.78;;;;;;;;;;5140351;27;20210;-62
2023/05/29 07:12:03;;;;;;;4.88;4.47;;;;;;;;;;5140270;27;20212;-64
2023/05/29 07:14:32;;;;;;;5.63;5.13;;;;;;;;;;5139891;27;20216;-64
2023/05/29 07:16:59;;;;;;;5.57;4.95;;;;;;;;;;5140003;27;20605;-64
2023/05/29 07:19:26;;;;;;;5.22;4.60;;;;;;;;;;5140236;27;20302;-64
2023/05/29 07:21:54;;;;;;;5.57;5.07;;;;;;;;;;5139483;27;20205;-64
2023/05/29 07:24:21;;;;;;;6.25;5.65;;;;;;;;;;5139782;27;20202;-61
2023/05/29 07:26:49;;;;;;;5.88;5.28;;;;;;;;;;5140221;27;20500;-64
2023/05/29 07:29:17;;;;;;;5.10;4.60;;;;;;;;;;5139319;27;20641;-63
2023/05/29 07:31:46;;;;;;;5.38;4.88;;;;;;;;;;5139793;27;20309;-63
2023/05/29 07:34:14;;;;;;;6.00;5.00;;;;;;;;;;5139907;27;20257;-64
2023/05/29 07:36:57;;;;;;;5.90;5.30;;;;;;;;;;5139607;27;20230;-64
2023/05/29 07:39:25;;;;;;;5.60;5.10;;;;;;;;;;5139524;27;20213;-63
2023/05/29 07:41:52;;;;;;;5.35;4.95;;;;;;;;;;5139036;27;20233;-63
2023/05/29 07:44:19;;;;;;;5.43;5.03;;;;;;;;;;5139323;27;20213;-63
2023/05/29 07:46:48;;;;;;;6.10;5.40;;;;;;;;;;5139715;27;20198;-62
2023/05/29 07:49:16;;;;;;;5.88;5.05;;;;;;;;;;5139281;27;20267;-64
2023/05/29 07:51:43;;;;;;;5.10;4.60;;;;;;;;;;5139167;27;20255;-63
2023/05/29 07:54:12;;;;;;;5.10;4.35;;;;;;;;;;5139834;27;20217;-64
2023/05/29 07:56:40;;;;;;;5.28;4.60;;;;;;;;;;5139455;27;20226;-63
2023/05/29 07:59:08;;;;;;;5.60;4.60;;;;;;;;;;5139262;27;20210;-64
2023/05/29 08:01:37;;;;;;;4.80;4.40;;;;;;;;;;5139436;27;20202;-64
2023/05/29 08:04:05;;;;;;;5.07;4.35;;;;;;;;;;5138371;27;20208;-64
2023/05/29 08:06:33;;;;;;;5.18;4.43;;;;;;;;;;5138531;27;20198;-64
2023/05/29 08:09:01;;;;;;;5.47;4.95;;;;;;;;;;5139260;27;20203;-63
2023/05/29 08:11:28;;;;;;;5.28;4.72;;;;;;;;;;5138379;27;20194;-63
2023/05/29 08:13:56;;;;;;;7.10;4.90;;;;;;;;;;5138867;27;20202;-63
2023/05/29 08:16:23;;;;;;;4.85;4.45;;;;;;;;;;5138575;27;20222;-63
2023/05/29 08:18:51;;;;;;;4.70;4.20;;;;;;;;;;5138758;27;20232;-64
2023/05/29 08:21:19;;;;;;;5.10;4.50;;;;;;;;;;5138264;27;20311;-64
2023/05/29 08:23:47;;;;;;;5.78;4.82;;;;;;;;;;5138219;27;20519;-64
2023/05/29 08:26:14;;;;;;;4.88;4.47;;;;;;;;;;5138675;27;20586;-64
2023/05/29 08:28:42;;;;;;;4.47;4.07;;;;;;;;;;5138659;27;20541;-64
2023/05/29 08:31:09;;;;;;;4.63;4.22;;;;;;;;;;5138058;27;20202;-64
2023/05/29 08:33:37;;;;;;;4.55;4.15;;;;;;;;;;5138448;27;20206;-64
2023/05/29 08:36:05;;;;;;;6.03;4.72;;;;;;;;;;5138718;27;20651;-64
2023/05/29 08:38:33;;;;;;;5.80;4.88;;;;;;;;;;5138416;27;20226;-64
2023/05/29 08:41:01;;;;;;;5.07;4.30;;;;;;;;;;5137428;27;20203;-64
2023/05/29 08:43:31;;;;;;;5.03;4.28;;;;;;;;;;5137619;27;20472;-64
2023/05/29 08:46:01;;;;;;;4.28;3.88;;;;;;;;;;5137375;27;20393;-64
2023/05/29 08:48:29;;;;;;;4.55;3.95;;;;;;;;;;5138438;27;20296;-64
2023/05/29 08:50:57;;;;;;;5.03;4.15;;;;;;;;;;5138038;27;20210;-64
2023/05/29 08:53:25;;;;;;;4.22;3.83;;;;;;;;;;5138407;27;20574;-64
2023/05/29 08:55:55;;;;;;;4.97;4.30;;;;;;;;;;5138124;27;20217;-64
2023/05/29 08:58:23;;;;;;;4.30;3.90;;;;;;;;;;5138015;27;20237;-63
2023/05/29 09:00:51;;;;;;;4.03;3.40;;;;;;;;;;5137630;27;20229;-64
2023/05/29 09:03:20;;;;;;;4.72;3.63;;;;;;;;;;5137522;27;20209;-64
2023/05/29 09:05:48;;;;;;;4.55;3.85;;;;;;;;;;5137959;27;20213;-64
2023/05/29 09:08:16;;;;;;;4.10;3.70;;;;;;;;;;5137894;27;20198;-64
2023/05/29 09:10:44;;;;;;;5.40;3.80;;;;;;;;;;5137429;27;20263;-64
2023/05/29 09:13:13;;;;;;;4.53;3.67;;;;;;;;;;5136694;27;20244;-64
2023/05/29 09:15:42;;;;;;;3.97;3.60;;;;;;;;;;5137389;27;20206;-63
2023/05/29 09:18:10;;;;;;;3.78;3.38;;;;;;;;;;5137688;27;20229;-63
2023/05/29 09:20:38;;;;;;;4.07;3.38;;;;;;;;;;5137163;27;20221;-64
2023/05/29 09:23:06;;;;;;;4.80;3.65;;;;;;;;;;5137253;27;20266;-64
2023/05/29 09:25:35;;;;;;;4.63;3.80;;;;;;;;;;5138197;27;20209;-64
2023/05/29 09:28:03;;;;;;;3.75;3.45;;;;;;;;;;5138054;28;20202;-64
2023/05/29 09:30:39;;;;;;;4.45;3.42;;;;;;;;;;5137616;27;20621;-64
2023/05/29 09:33:07;;;;;;;4.78;3.42;;;;;;;;;;5137061;27;20215;-63
2023/05/29 09:35:39;;;;;;;4.07;3.67;;;;;;;;;;5137555;27;20210;-64
2023/05/29 09:38:07;;;;;;;3.90;3.50;;;;;;;;;;5136560;27;20527;-64
2023/05/29 09:40:35;;;;;;;3.95;3.42;;;;;;;;;;5137722;27;20267;-64
2023/05/29 09:43:07;;;;;;;4.38;3.50;;;;;;;;;;5137409;27;20578;-64
2023/05/29 09:45:34;;;;;;;3.97;3.60;;;;;;;;;;5136716;27;20305;-64
2023/05/29 09:48:03;;;;;;;4.35;3.53;;;;;;;;;;5136723;28;20381;-64
2023/05/29 09:50:33;;;;;;;5.80;3.63;;;;;;;;;;5136872;28;20610;-64
2023/05/29 09:53:01;;;;;;;4.20;3.67;;;;;;;;;;5137894;27;20209;-64
2023/05/29 09:55:30;;;;;;;4.53;3.88;;;;;;;;;;5140886;27;20499;-64
2023/05/29 09:57:59;;;;;;;3.95;3.55;;;;;;;;;;5140542;27;20317;-64
2023/05/29 10:00:26;;;;;;;4.20;3.80;;;;;;;;;;5141166;27;20206;-64
2023/05/29 10:02:54;;;;;;;4.22;3.83;;;;;;;;;;5140137;27;20578;-64
2023/05/29 10:05:23;;;;;;;4.13;3.72;;;;;;;;;;5140410;27;20202;-64
2023/05/29 10:07:52;;;;;;;4.43;3.72;;;;;;;;;;5139739;27;20198;-64
2023/05/29 10:10:20;;;;;;;3.97;3.42;;;;;;;;;;5140602;27;20492;-64
2023/05/29 10:12:50;;;;;;;3.97;3.60;;;;;;;;;;5140100;27;20209;-64
2023/05/29 10:15:19;;;;;;;4.20;3.80;;;;;;;;;;5140448;27;20267;-64
2023/05/29 10:17:51;;;;;;;3.83;3.38;;;;;;;;;;5140293;27;20226;-64
2023/05/29 10:20:19;;;;;;;4.85;4.30;;;;;;;;;;5141237;27;20539;-62
2023/05/29 10:22:49;;;;;;;4.68;3.45;;;;;;;;;;5139908;27;20234;-63
2023/05/29 10:25:19;;;;;;;4.22;3.20;;;;;;;;;;5139387;27;20241;-62
2023/05/29 10:27:47;;;;;;;4.07;3.42;;;;;;;;;;5140452;27;20206;-64
2023/05/29 10:30:17;;;;;;;3.78;3.47;;;;;;;;;;5140197;27;20234;-62
2023/05/29 10:32:55;;;;;;;4.22;3.83;;;;;;;;;;5140006;27;20202;-62
2023/05/29 10:35:26;;;;;;;3.92;3.53;;;;;;;;;;5139549;27;20202;-62
2023/05/29 10:37:59;;;;;;;4.35;3.70;;;;;;;;;;5140232;27;20493;-62
2023/05/29 10:40:26;;;;;;;3.90;3.50;;;;;;;;;;5140641;27;20533;-63
2023/05/29 10:42:57;;;;;;;3.75;3.40;;;;;;;;;;5139924;27;20215;-64
2023/05/29 10:45:43;;;;;;;3.60;3.30;;;;;;;;;;5140361;27;20502;-64
2023/05/29 10:48:38;;;;;;;4.85;3.15;;;;;;;;;;5139978;27;20620;-64
2023/05/29 10:51:06;;;;;;;3.50;3.20;;;;;;;;;;5080988;27;20481;-63
2023/05/29 10:53:39;;;;;;;3.33;3.00;;;;;;;;;;5139563;27;20202;-63
2023/05/29 10:56:10;;;;;;;3.92;3.40;;;;;;;;;;5140070;27;20462;-62
2023/05/29 10:58:40;;;;;;;4.55;3.47;;;;;;;;;;5139511;27;20237;-63
2023/05/29 11:01:10;;;;;;;3.53;3.10;;;;;;;;;;5139345;27;20206;-62
2023/05/29 11:03:37;;;;;;;6.78;3.65;;;;;;;;;;5139158;27;20310;-64
2023/05/29 11:06:07;;;;;;;4.80;3.20;;;;;;;;;;5139045;27;20253;-63
2023/05/29 11:08:36;;;;;;;3.30;2.97;;;;;;;;;;5139424;27;20202;-62
2023/05/29 11:11:05;;;;;;;3.67;3.05;;;;;;;;;;5138953;27;20493;-63
2023/05/29 11:13:35;;;;;;;3.05;2.75;;;;;;;;;;5138898;27;20194;-63
2023/05/29 11:16:15;;;;;;;4.32;3.25;;;;;;;;;;5139522;27;20194;-63
2023/05/29 11:18:46;;;;;;;5.32;3.17;;;;;;;;;;5139137;27;20226;-62
2023/05/29 11:21:28;;;;;;;3.33;2.83;;;;;;;;;;5138359;27;20466;-64
2023/05/29 11:23:59;;;;;;;3.85;2.92;;;;;;;;;;5134378;27;20276;-64
2023/05/29 11:26:28;;;;;;;3.78;3.08;;;;;;;;;;5137922;27;20208;-63
2023/05/29 11:28:59;;;;;;;3.55;2.97;;;;;;;;;;5137617;27;20233;-64
2023/05/29 11:31:26;;;;;;;3.08;2.88;;;;;;;;;;5137518;27;20202;-64
2023/05/29 11:33:56;;;;;;;3.38;3.08;;;;;;;;;;5138665;27;20202;-64
2023/05/29 11:36:24;;;;;;;3.47;3.10;;;;;;;;;;5138684;27;20203;-63
2023/05/29 11:38:53;;;;;;;3.22;2.85;;;;;;;;;;5138703;27;20236;-63
2023/05/29 11:41:22;;;;;;;4.30;3.22;;;;;;;;;;5138322;27;20208;-63
2023/05/29 11:43:58;;;;;;;3.30;3.00;;;;;;;;;;5138629;27;20206;-63
2023/05/29 11:46:26;;;;;;;3.72;3.05;;;;;;;;;;5138324;27;20203;-63
2023/05/29 11:48:53;;;;;;;3.65;3.35;;;;;;;;;;5138067;27;20198;-63
2023/05/29 11:51:21;;;;;;;3.20;2.90;;;;;;;;;;5138800;27;20202;-63
2023/05/29 11:53:49;;;;;;;3.30;3.00;;;;;;;;;;5138415;27;20201;-64
2023/05/29 11:56:16;;;;;;;4.60;2.97;;;;;;;;;;5138897;27;20202;-63
2023/05/29 11:58:46;;;;;;;3.45;3.15;;;;;;;;;;5138309;27;20245;-64
2023/05/29 12:01:19;;;;;;;4.88;3.22;;;;;;;;;;5138224;27;20206;-64
2023/05/29 12:03:46;;;;;;;3.40;3.10;;;;;;;;;;5138087;27;20693;-64
2023/05/29 12:06:14;;;;;;;4.35;3.33;;;;;;;;;;5137214;27;20194;-62
2023/05/29 12:08:41;;;;;;;3.97;3.58;;;;;;;;;;5137817;27;20198;-62
2023/05/29 12:11:09;;;;;;;3.22;2.90;;;;;;;;;;5137575;27;20206;-63
2023/05/29 12:13:36;;;;;;;3.90;3.20;;;;;;;;;;5137988;27;20206;-64
2023/05/29 12:16:07;;;;;;;4.07;3.30;;;;;;;;;;5136855;27;20293;-64
2023/05/29 12:18:34;;;;;;;3.50;3.20;;;;;;;;;;5138252;27;20226;-64
2023/05/29 12:21:02;;;;;;;4.10;3.42;;;;;;;;;;5136692;27;20217;-64
2023/05/29 12:23:30;;;;;;;3.55;3.25;;;;;;;;;;5136021;27;20202;-64
2023/05/29 12:25:57;;;;;;;4.05;3.38;;;;;;;;;;5136839;27;20282;-64
2023/05/29 12:28:25;;;;;;;3.58;3.28;;;;;;;;;;5137383;27;20211;-64
2023/05/29 12:30:52;;;;;;;3.42;3.13;;;;;;;;;;5136794;27;20241;-63
2023/05/29 12:36:15;;;;;;;4.30;3.67;;;;;;;;;;5133342;27;20545;-64
2023/05/29 12:38:50;;;;;;;4.07;3.15;;;;;;;;;;5133876;27;20233;-64
2023/05/29 12:41:24;;;;;;;4.53;3.22;;;;;;;;;;5133613;27;20201;-62
2023/05/29 12:43:51;;;;;;;3.50;3.13;;;;;;;;;;5133193;27;20203;-65
2023/05/29 12:46:18;;;;;;;3.33;3.00;;;;;;;;;;5133930;27;20634;-64
2023/05/29 12:48:46;;;;;;;3.83;3.50;;;;;;;;;;5133760;27;20233;-63
2023/05/29 12:51:13;;;;;;;3.60;3.30;;;;;;;;;;5134130;27;20202;-63
2023/05/29 12:53:42;;;;;;;4.85;3.50;;;;;;;;;;5133128;27;20202;-63
2023/05/29 12:56:09;;;;;;;3.85;3.50;;;;;;;;;;5132702;27;20492;-63
2023/05/29 12:58:37;;;;;;;3.80;3.35;;;;;;;;;;5133734;27;20206;-63
2023/05/29 13:01:04;;;;;;;4.55;3.15;;;;;;;;;;5133147;27;20206;-63
2023/05/29 13:03:31;;;;;;;3.70;3.40;;;;;;;;;;5132165;27;20210;-63
2023/05/29 13:05:59;;;;;;;4.75;3.08;;;;;;;;;;5133171;27;20627;-63
2023/05/29 13:08:27;;;;;;;3.63;2.90;;;;;;;;;;5132821;27;20246;-63
2023/05/29 13:10:56;;;;;;;3.92;3.53;;;;;;;;;;5132659;27;20688;-63
2023/05/29 13:13:23;;;;;;;4.70;3.67;;;;;;;;;;5132282;27;20506;-63
2023/05/29 13:15:51;;;;;;;4.10;3.00;;;;;;;;;;5132604;27;20229;-63
2023/05/29 13:18:18;;;;;;;3.47;3.17;;;;;;;;;;5132857;27;20202;-63
2023/05/29 13:20:45;;;;;;;3.53;3.22;;;;;;;;;;5133478;27;20214;-63
2023/05/29 13:23:13;;;;;;;3.90;3.50;;;;;;;;;;5132005;27;20218;-63
2023/05/29 13:25:40;;;;;;;3.65;3.30;;;;;;;;;;5132879;27;20217;-63
2023/05/29 13:28:09;;;;;;;3.85;3.55;;;;;;;;;;5131417;27;20293;-63
2023/05/29 13:30:36;;;;;;;4.20;3.30;;;;;;;;;;5132707;27;20259;-63
2023/05/29 13:33:04;;;;;;;4.68;3.47;;;;;;;;;;5133286;27;20217;-63
2023/05/29 13:35:31;;;;;;;3.63;3.20;;;;;;;;;;5132136;27;20617;-63
2023/05/29 13:37:58;;;;;;;3.42;3.13;;;;;;;;;;5131716;27;20229;-63
2023/05/29 13:40:26;;;;;;;3.72;3.42;;;;;;;;;;5131979;27;20213;-63
2023/05/29 13:42:53;;;;;;;3.90;3.58;;;;;;;;;;5132081;27;20220;-63
2023/05/29 13:45:22;;;;;;;3.90;3.53;;;;;;;;;;5132510;27;20568;-63
2023/05/29 13:47:49;;;;;;;3.72;3.10;;;;;;;;;;5118052;28;20207;-63
2023/05/29 13:50:17;;;;;;;3.50;3.17;;;;;;;;;;5118671;28;20409;-63
2023/05/29 13:52:44;;;;;;;3.83;3.25;;;;;;;;;;5117932;28;20203;-63
2023/05/29 13:55:11;;;;;;;3.92;3.38;;;;;;;;;;5117112;28;20493;-64
2023/05/29 13:57:39;;;;;;;3.58;3.28;;;;;;;;;;5117197;28;20203;-64
2023/05/29 14:00:07;;;;;;;3.60;3.30;;;;;;;;;;5117136;28;20222;-63
2023/05/29 14:02:36;;;;;;;3.47;3.15;;;;;;;;;;5116947;28;20455;-63
2023/05/29 14:05:03;;;;;;;4.13;3.28;;;;;;;;;;5118274;28;20549;-63
2023/05/29 14:07:31;;;;;;;3.70;3.40;;;;;;;;;;5117880;28;20202;-63
2023/05/29 14:09:58;;;;;;;3.80;3.40;;;;;;;;;;5118069;28;20234;-62
2023/05/29 14:12:25;;;;;;;3.33;3.00;;;;;;;;;;5118312;28;20210;-63
2023/05/29 14:14:53;;;;;;;3.40;3.10;;;;;;;;;;5117172;28;20699;-64
2023/05/29 14:17:20;;;;;;;3.35;3.10;;;;;;;;;;5117903;28;20203;-63
2023/05/29 14:19:49;;;;;;;4.30;3.30;;;;;;;;;;5116601;28;20512;-63
2023/05/29 14:22:16;;;;;;;3.63;3.33;;;;;;;;;;5116571;28;20202;-63
2023/05/29 14:24:44;;;;;;;3.65;3.30;;;;;;;;;;5116803;28;20201;-63
2023/05/29 14:27:11;;;;;;;3.65;3.35;;;;;;;;;;5116996;28;20214;-63
2023/05/29 14:29:38;;;;;;;4.32;3.25;;;;;;;;;;5116857;27;20195;-63
2023/05/29 14:32:06;;;;;;;4.57;3.45;;;;;;;;;;5117282;28;20207;-64
2023/05/29 14:34:34;;;;;;;3.40;3.10;;;;;;;;;;5117672;28;20234;-64
2023/05/29 14:37:02;;;;;;;3.40;3.10;;;;;;;;;;5117598;28;20649;-64
2023/05/29 14:39:30;;;;;;;3.70;3.40;;;;;;;;;;5117441;27;20459;-63
2023/05/29 14:41:57;;;;;;;3.55;3.22;;;;;;;;;;5118083;28;20207;-64
2023/05/29 14:44:24;;;;;;;5.13;3.47;;;;;;;;;;5118060;28;20230;-64
2023/05/29 14:46:52;;;;;;;3.60;3.30;;;;;;;;;;5117292;28;20206;-64
2023/05/29 14:49:21;;;;;;;3.80;3.40;;;;;;;;;;5117362;28;20203;-65
2023/05/29 14:51:48;;;;;;;3.78;3.47;;;;;;;;;;5116386;28;20353;-64
2023/05/29 14:54:17;;;;;;;3.50;3.20;;;;;;;;;;5116110;28;20480;-64